sensor_id;sensor_type;location;lat;lon;timestamp;temperature;humidity
10083;DHT22;5080;48.528;8.078;2024-03-23T00:54:07;12.80;99.90
10083;DHT22;5080;48.528;8.078;2024-03-23T00:56:33;12.90;99.90
10083;DHT22;5080;48.528;8.078;2024-03-23T00:59:00;12.90;99.90
10083;DHT22;5080;48.528;8.078;2024-03-23T01:01:25;12.90;99.90
10083;DHT22;5080;48.528;8.078;2024-03-23T01:03:52;12.90;99.90
10083;DHT22;5080;48.528;8.078;2024-03-23T01:06:18;13.00;99.90
10083;DHT22;5080;48.528;8.078;2024-03-23T01:08:44;12.90;99.90
10083;DHT22;5080;48.528;8.078;2024-03-23T01:11:12;13.00;99.90
10083;DHT22;5080;48.528;8.078;2024-03-23T01:13:38;13.00;99.90
10083;DHT22;5080;48.528;8.078;2024-03-23T01:16:04;12.90;99.90
10083;DHT22;5080;48.528;8.078;2024-03-23T01:18:32;13.00;99.90
10083;DHT22;5080;48.528;8.078;2024-03-23T01:20:58;12.90;99.90
10083;DHT22;5080;48.528;8.078;2024-03-23T01:23:25;13.00;99.90
10083;DHT22;5080;48.528;8.078;2024-03-23T01:25:54;13.00;99.90
10083;DHT22;5080;48.528;8.078;2024-03-23T01:28:22;13.00;99.90
10083;DHT22;5080;48.528;8.078;2024-03-23T01:30:49;13.00;99.90
10083;DHT22;5080;48.528;8.078;2024-03-23T01:33:15;13.00;99.90
10083;DHT22;5080;48.528;8.078;2024-03-23T01:35:41;13.10;99.90
10083;DHT22;5080;48.528;8.078;2024-03-23T01:38:08;13.00;99.90
10083;DHT22;5080;48.528;8.078;2024-03-23T01:40:34;13.10;99.90
10083;DHT22;5080;48.528;8.078;2024-03-23T01:43:04;13.10;99.90
10083;DHT22;5080;48.528;8.078;2024-03-23T01:45:31;13.10;99.90
10083;DHT22;5080;48.528;8.078;2024-03-23T01:47:58;13.20;99.90
10083;DHT22;5080;48.528;8.078;2024-03-23T01:50:24;13.30;99.90
10083;DHT22;5080;48.528;8.078;2024-03-23T01:52:51;13.30;99.90
10083;DHT22;5080;48.528;8.078;2024-03-23T01:55:17;13.40;99.90
10083;DHT22;5080;48.528;8.078;2024-03-23T01:57:44;13.50;99.90
10083;DHT22;5080;48.528;8.078;2024-03-23T02:00:11;13.50;99.90
10083;DHT22;5080;48.528;8.078;2024-03-23T02:02:42;13.70;99.90
10083;DHT22;5080;48.528;8.078;2024-03-23T02:05:09;13.90;99.90
10083;DHT22;5080;48.528;8.078;2024-03-23T02:07:37;14.10;99.90
10083;DHT22;5080;48.528;8.078;2024-03-23T02:10:04;14.40;99.90
10083;DHT22;5080;48.528;8.078;2024-03-23T02:12:31;14.50;99.90
10083;DHT22;5080;48.528;8.078;2024-03-23T02:14:56;14.60;99.90
10083;DHT22;5080;48.528;8.078;2024-03-23T02:17:23;14.70;99.90
10083;DHT22;5080;48.528;8.078;2024-03-23T02:19:50;14.60;99.90
10083;DHT22;5080;48.528;8.078;2024-03-23T02:22:17;14.60;99.90
10083;DHT22;5080;48.528;8.078;2024-03-23T02:24:44;14.70;99.90
10083;DHT22;5080;48.528;8.078;2024-03-23T02:27:11;14.70;99.90
10083;DHT22;5080;48.528;8.078;2024-03-23T02:29:37;14.70;99.90
10083;DHT22;5080;48.528;8.078;2024-03-23T02:32:04;14.70;99.90
10083;DHT22;5080;48.528;8.078;2024-03-23T02:34:30;14.80;99.90
10083;DHT22;5080;48.528;8.078;2024-03-23T02:36:57;14.90;99.90
10083;DHT22;5080;48.528;8.078;2024-03-23T02:39:23;14.80;99.90
10083;DHT22;5080;48.528;8.078;2024-03-23T02:41:51;14.90;99.90
10083;DHT22;5080;48.528;8.078;2024-03-23T02:44:16;14.90;99.90
10083;DHT22;5080;48.528;8.078;2024-03-23T02:46:43;14.90;99.90
10083;DHT22;5080;48.528;8.078;2024-03-23T02:49:09;14.90;99.90
10083;DHT22;5080;48.528;8.078;2024-03-23T02:51:36;14.90;99.90
10083;DHT22;5080;48.528;8.078;2024-03-23T02:54:01;14.90;99.90
10083;DHT22;5080;48.528;8.078;2024-03-23T02:56:28;14.90;99.90
10083;DHT22;5080;48.528;8.078;2024-03-23T02:58:55;14.90;99.90
10083;DHT22;5080;48.528;8.078;2024-03-23T03:01:22;14.90;99.90
10083;DHT22;5080;48.528;8.078;2024-03-23T03:03:48;14.90;99.90
10083;DHT22;5080;48.528;8.078;2024-03-23T03:06:23;14.90;99.90
10083;DHT22;5080;48.528;8.078;2024-03-23T03:08:49;14.90;99.90
10083;DHT22;5080;48.528;8.078;2024-03-23T03:11:15;15.00;99.90
10083;DHT22;5080;48.528;8.078;2024-03-23T03:13:41;14.90;99.90
10083;DHT22;5080;48.528;8.078;2024-03-23T03:16:10;15.00;99.90
10083;DHT22;5080;48.528;8.078;2024-03-23T03:18:35;14.90;99.90
10083;DHT22;5080;48.528;8.078;2024-03-23T03:21:02;15.00;99.90
10083;DHT22;5080;48.528;8.078;2024-03-23T03:23:28;14.90;99.90
10083;DHT22;5080;48.528;8.078;2024-03-23T03:25:55;14.90;99.90
10083;DHT22;5080;48.528;8.078;2024-03-23T03:28:21;14.90;99.90
10083;DHT22;5080;48.528;8.078;2024-03-23T03:30:47;14.90;99.90
10083;DHT22;5080;48.528;8.078;2024-03-23T03:33:15;14.90;99.90
10083;DHT22;5080;48.528;8.078;2024-03-23T03:35:42;14.90;99.90
10083;DHT22;5080;48.528;8.078;2024-03-23T03:38:08;14.90;99.90
10083;DHT22;5080;48.528;8.078;2024-03-23T03:40:35;14.90;99.90
10083;DHT22;5080;48.528;8.078;2024-03-23T03:43:01;15.00;99.90
10083;DHT22;5080;48.528;8.078;2024-03-23T03:45:28;15.00;99.90
10083;DHT22;5080;48.528;8.078;2024-03-23T03:47:53;15.00;99.90
10083;DHT22;5080;48.528;8.078;2024-03-23T03:50:21;15.00;99.90
10083;DHT22;5080;48.528;8.078;2024-03-23T03:52:47;15.00;99.90
10083;DHT22;5080;48.528;8.078;2024-03-23T03:55:14;15.00;99.90
10083;DHT22;5080;48.528;8.078;2024-03-23T03:57:40;14.90;99.90
10083;DHT22;5080;48.528;8.078;2024-03-23T04:00:08;14.70;99.90
10083;DHT22;5080;48.528;8.078;2024-03-23T04:02:36;14.40;99.90
10083;DHT22;5080;48.528;8.078;2024-03-23T04:05:03;13.80;99.90
10083;DHT22;5080;48.528;8.078;2024-03-23T04:07:30;13.20;99.90
10083;DHT22;5080;48.528;8.078;2024-03-23T04:09:57;13.10;99.90
10083;DHT22;5080;48.528;8.078;2024-03-23T04:12:23;12.90;99.90
10083;DHT22;5080;48.528;8.078;2024-03-23T04:14:50;12.80;99.90
10083;DHT22;5080;48.528;8.078;2024-03-23T04:17:16;12.70;99.90
10083;DHT22;5080;48.528;8.078;2024-03-23T04:19:44;12.60;99.90
10083;DHT22;5080;48.528;8.078;2024-03-23T04:22:10;12.40;99.90
10083;DHT22;5080;48.528;8.078;2024-03-23T04:24:38;12.40;99.90
10083;DHT22;5080;48.528;8.078;2024-03-23T04:27:04;12.40;99.90
10083;DHT22;5080;48.528;8.078;2024-03-23T04:29:31;12.30;99.90
10083;DHT22;5080;48.528;8.078;2024-03-23T04:31:57;12.30;99.90
10083;DHT22;5080;48.528;8.078;2024-03-23T04:34:23;12.50;99.90
10083;DHT22;5080;48.528;8.078;2024-03-23T04:36:49;12.50;99.90
10083;DHT22;5080;48.528;8.078;2024-03-23T04:39:16;12.50;99.90
10083;DHT22;5080;48.528;8.078;2024-03-23T04:41:46;12.40;99.90
10083;DHT22;5080;48.528;8.078;2024-03-23T04:44:13;12.30;99.90
10083;DHT22;5080;48.528;8.078;2024-03-23T04:46:39;12.20;99.90
10083;DHT22;5080;48.528;8.078;2024-03-23T04:49:05;12.10;99.90
10083;DHT22;5080;48.528;8.078;2024-03-23T04:51:36;12.10;99.90
10083;DHT22;5080;48.528;8.078;2024-03-23T04:54:02;12.10;99.90
10083;DHT22;5080;48.528;8.078;2024-03-23T04:56:29;12.00;99.90
10083;DHT22;5080;48.528;8.078;2024-03-23T04:58:58;12.00;99.90
10083;DHT22;5080;48.528;8.078;2024-03-23T05:01:27;12.00;99.90
10083;DHT22;5080;48.528;8.078;2024-03-23T05:03:53;11.90;99.90
10083;DHT22;5080;48.528;8.078;2024-03-23T05:06:19;11.90;99.90
10083;DHT22;5080;48.528;8.078;2024-03-23T05:08:46;11.80;99.90
10083;DHT22;5080;48.528;8.078;2024-03-23T05:11:12;11.90;99.90
10083;DHT22;5080;48.528;8.078;2024-03-23T05:13:38;11.80;99.90
10083;DHT22;5080;48.528;8.078;2024-03-23T05:16:06;11.80;99.90
10083;DHT22;5080;48.528;8.078;2024-03-23T05:18:32;11.80;99.90
10083;DHT22;5080;48.528;8.078;2024-03-23T05:20:58;11.60;99.90
10083;DHT22;5080;48.528;8.078;2024-03-23T05:23:25;11.50;99.90
10083;DHT22;5080;48.528;8.078;2024-03-23T05:25:51;11.40;99.90
10083;DHT22;5080;48.528;8.078;2024-03-23T05:28:18;11.30;99.90
10083;DHT22;5080;48.528;8.078;2024-03-23T05:30:50;11.10;99.90
10083;DHT22;5080;48.528;8.078;2024-03-23T05:33:18;11.10;99.90
10083;DHT22;5080;48.528;8.078;2024-03-23T05:35:44;11.10;99.90
10083;DHT22;5080;48.528;8.078;2024-03-23T05:38:10;11.00;99.90
10083;DHT22;5080;48.528;8.078;2024-03-23T05:40:36;11.00;99.90
10083;DHT22;5080;48.528;8.078;2024-03-23T05:43:05;10.90;99.90
10083;DHT22;5080;48.528;8.078;2024-03-23T05:45:31;10.90;99.90
10083;DHT22;5080;48.528;8.078;2024-03-23T05:47:58;10.90;99.90
10083;DHT22;5080;48.528;8.078;2024-03-23T05:50:25;10.90;99.90
10083;DHT22;5080;48.528;8.078;2024-03-23T05:52:52;10.90;99.90
10083;DHT22;5080;48.528;8.078;2024-03-23T05:55:18;10.90;99.90
10083;DHT22;5080;48.528;8.078;2024-03-23T05:57:45;10.90;99.90
10083;DHT22;5080;48.528;8.078;2024-03-23T06:00:11;10.90;99.90
10083;DHT22;5080;48.528;8.078;2024-03-23T06:02:42;10.90;99.90
10083;DHT22;5080;48.528;8.078;2024-03-23T06:05:09;10.90;99.90
10083;DHT22;5080;48.528;8.078;2024-03-23T06:07:38;10.90;99.90
10083;DHT22;5080;48.528;8.078;2024-03-23T06:10:04;10.90;99.90
10083;DHT22;5080;48.528;8.078;2024-03-23T06:12:31;10.90;99.90
10083;DHT22;5080;48.528;8.078;2024-03-23T06:14:57;10.80;99.90
10083;DHT22;5080;48.528;8.078;2024-03-23T06:17:23;10.80;99.90
10083;DHT22;5080;48.528;8.078;2024-03-23T06:19:49;10.80;99.90
10083;DHT22;5080;48.528;8.078;2024-03-23T06:22:16;10.80;99.90
10083;DHT22;5080;48.528;8.078;2024-03-23T06:24:44;10.80;99.90
10083;DHT22;5080;48.528;8.078;2024-03-23T06:27:11;10.80;99.90
10083;DHT22;5080;48.528;8.078;2024-03-23T06:29:36;10.80;99.90
10083;DHT22;5080;48.528;8.078;2024-03-23T06:32:03;10.80;99.90
10083;DHT22;5080;48.528;8.078;2024-03-23T06:34:29;10.70;99.90
10083;DHT22;5080;48.528;8.078;2024-03-23T06:36:56;10.70;99.90
10083;DHT22;5080;48.528;8.078;2024-03-23T06:39:21;10.60;99.90
10083;DHT22;5080;48.528;8.078;2024-03-23T06:41:53;10.60;99.90
10083;DHT22;5080;48.528;8.078;2024-03-23T06:44:19;10.50;99.90
10083;DHT22;5080;48.528;8.078;2024-03-23T06:46:46;10.50;99.90
10083;DHT22;5080;48.528;8.078;2024-03-23T06:49:14;10.50;99.90
10083;DHT22;5080;48.528;8.078;2024-03-23T06:51:41;10.40;99.90
10083;DHT22;5080;48.528;8.078;2024-03-23T06:54:07;10.40;99.90
10083;DHT22;5080;48.528;8.078;2024-03-23T06:56:34;10.40;99.90
10083;DHT22;5080;48.528;8.078;2024-03-23T06:59:01;10.40;99.90
10083;DHT22;5080;48.528;8.078;2024-03-23T07:01:28;10.30;99.90
10083;DHT22;5080;48.528;8.078;2024-03-23T07:03:54;10.30;99.90
10083;DHT22;5080;48.528;8.078;2024-03-23T07:06:21;10.30;99.90
10083;DHT22;5080;48.528;8.078;2024-03-23T07:08:47;10.20;99.90
10083;DHT22;5080;48.528;8.078;2024-03-23T07:11:18;10.20;99.90
10083;DHT22;5080;48.528;8.078;2024-03-23T07:13:44;10.20;99.90
10083;DHT22;5080;48.528;8.078;2024-03-23T07:16:13;10.10;99.90
10083;DHT22;5080;48.528;8.078;2024-03-23T07:18:38;10.10;99.90
10083;DHT22;5080;48.528;8.078;2024-03-23T07:21:05;10.20;99.90
10083;DHT22;5080;48.528;8.078;2024-03-23T07:23:32;10.20;99.90
10083;DHT22;5080;48.528;8.078;2024-03-23T07:26:00;10.20;99.90
10083;DHT22;5080;48.528;8.078;2024-03-23T07:28:26;10.20;99.90
10083;DHT22;5080;48.528;8.078;2024-03-23T07:31:02;10.20;99.90
10083;DHT22;5080;48.528;8.078;2024-03-23T07:33:29;10.20;99.90
10083;DHT22;5080;48.528;8.078;2024-03-23T07:35:56;10.20;99.90
10083;DHT22;5080;48.528;8.078;2024-03-23T07:38:22;10.20;99.90
10083;DHT22;5080;48.528;8.078;2024-03-23T07:40:48;10.20;99.90
10083;DHT22;5080;48.528;8.078;2024-03-23T07:43:15;10.20;99.90
10083;DHT22;5080;48.528;8.078;2024-03-23T07:45:42;10.10;99.90
10083;DHT22;5080;48.528;8.078;2024-03-23T07:48:07;10.10;99.90
10083;DHT22;5080;48.528;8.078;2024-03-23T07:50:36;10.20;99.90
10083;DHT22;5080;48.528;8.078;2024-03-23T07:53:02;10.40;99.90
10083;DHT22;5080;48.528;8.078;2024-03-23T07:55:28;10.50;99.90
10083;DHT22;5080;48.528;8.078;2024-03-23T07:57:54;10.50;99.90
10083;DHT22;5080;48.528;8.078;2024-03-23T08:00:21;10.70;99.90
10083;DHT22;5080;48.528;8.078;2024-03-23T08:02:47;10.70;99.90
10083;DHT22;5080;48.528;8.078;2024-03-23T08:05:16;10.90;99.90
10083;DHT22;5080;48.528;8.078;2024-03-23T08:07:44;10.70;99.90
10083;DHT22;5080;48.528;8.078;2024-03-23T08:10:10;10.60;99.90
10083;DHT22;5080;48.528;8.078;2024-03-23T08:12:38;10.70;99.90
10083;DHT22;5080;48.528;8.078;2024-03-23T08:15:04;10.60;99.90
10083;DHT22;5080;48.528;8.078;2024-03-23T08:17:31;10.50;99.90
10083;DHT22;5080;48.528;8.078;2024-03-23T08:19:58;10.40;99.90
10083;DHT22;5080;48.528;8.078;2024-03-23T08:22:23;10.30;99.90
10083;DHT22;5080;48.528;8.078;2024-03-23T08:24:51;10.30;99.90
10083;DHT22;5080;48.528;8.078;2024-03-23T08:27:17;10.10;99.90
10083;DHT22;5080;48.528;8.078;2024-03-23T08:29:45;10.20;99.90
10083;DHT22;5080;48.528;8.078;2024-03-23T08:32:11;10.70;99.90
10083;DHT22;5080;48.528;8.078;2024-03-23T08:34:39;10.90;99.90
10083;DHT22;5080;48.528;8.078;2024-03-23T08:37:04;10.90;99.90
10083;DHT22;5080;48.528;8.078;2024-03-23T08:39:31;11.00;99.90
10083;DHT22;5080;48.528;8.078;2024-03-23T08:41:58;11.10;99.90
10083;DHT22;5080;48.528;8.078;2024-03-23T08:44:25;11.30;99.90
10083;DHT22;5080;48.528;8.078;2024-03-23T08:46:50;11.50;99.90
10083;DHT22;5080;48.528;8.078;2024-03-23T08:49:17;11.60;99.90
10083;DHT22;5080;48.528;8.078;2024-03-23T08:51:43;11.80;99.90
10083;DHT22;5080;48.528;8.078;2024-03-23T08:54:10;11.70;99.90
10083;DHT22;5080;48.528;8.078;2024-03-23T08:56:36;11.70;99.90
10083;DHT22;5080;48.528;8.078;2024-03-23T08:59:04;11.60;99.90
10083;DHT22;5080;48.528;8.078;2024-03-23T09:01:30;11.40;99.90
10083;DHT22;5080;48.528;8.078;2024-03-23T09:03:57;11.40;99.90
10083;DHT22;5080;48.528;8.078;2024-03-23T09:06:23;11.40;99.90
10083;DHT22;5080;48.528;8.078;2024-03-23T09:08:49;11.30;99.90
10083;DHT22;5080;48.528;8.078;2024-03-23T09:11:15;11.30;99.90
10083;DHT22;5080;48.528;8.078;2024-03-23T09:13:42;11.40;99.90
10083;DHT22;5080;48.528;8.078;2024-03-23T09:16:09;11.50;99.90
10083;DHT22;5080;48.528;8.078;2024-03-23T09:18:36;11.50;99.90
10083;DHT22;5080;48.528;8.078;2024-03-23T09:21:03;11.50;99.90
10083;DHT22;5080;48.528;8.078;2024-03-23T09:23:30;11.70;99.90
10083;DHT22;5080;48.528;8.078;2024-03-23T09:25:55;11.70;99.90
10083;DHT22;5080;48.528;8.078;2024-03-23T09:28:22;11.80;99.90
10083;DHT22;5080;48.528;8.078;2024-03-23T09:30:48;11.80;99.90
10083;DHT22;5080;48.528;8.078;2024-03-23T09:33:16;12.30;99.90
10083;DHT22;5080;48.528;8.078;2024-03-23T09:35:43;12.40;99.90
10083;DHT22;5080;48.528;8.078;2024-03-23T09:38:11;12.50;99.90
10083;DHT22;5080;48.528;8.078;2024-03-23T09:40:40;12.80;99.90
10083;DHT22;5080;48.528;8.078;2024-03-23T09:43:07;13.20;99.90
10083;DHT22;5080;48.528;8.078;2024-03-23T09:45:38;13.10;99.90
10083;DHT22;5080;48.528;8.078;2024-03-23T09:48:06;12.80;99.90
10083;DHT22;5080;48.528;8.078;2024-03-23T09:50:33;12.40;99.90
10083;DHT22;5080;48.528;8.078;2024-03-23T09:53:00;12.00;99.90
10083;DHT22;5080;48.528;8.078;2024-03-23T09:55:26;11.00;99.90
10083;DHT22;5080;48.528;8.078;2024-03-23T09:57:53;10.30;99.90
10083;DHT22;5080;48.528;8.078;2024-03-23T10:00:19;9.50;99.90
10083;DHT22;5080;48.528;8.078;2024-03-23T10:02:46;9.20;99.90
10083;DHT22;5080;48.528;8.078;2024-03-23T10:05:20;8.90;99.90
10083;DHT22;5080;48.528;8.078;2024-03-23T10:07:49;8.80;99.90
10083;DHT22;5080;48.528;8.078;2024-03-23T10:10:16;8.70;99.90
10083;DHT22;5080;48.528;8.078;2024-03-23T10:12:47;8.50;99.90
10083;DHT22;5080;48.528;8.078;2024-03-23T10:15:19;8.30;99.90
10083;DHT22;5080;48.528;8.078;2024-03-23T10:17:46;8.30;99.90
10083;DHT22;5080;48.528;8.078;2024-03-23T10:20:12;8.40;99.90
10083;DHT22;5080;48.528;8.078;2024-03-23T10:22:39;8.30;99.90
10083;DHT22;5080;48.528;8.078;2024-03-23T10:25:10;8.30;99.90
10083;DHT22;5080;48.528;8.078;2024-03-23T10:27:39;8.40;99.90
10083;DHT22;5080;48.528;8.078;2024-03-23T10:30:09;8.50;99.90
10083;DHT22;5080;48.528;8.078;2024-03-23T10:32:36;8.60;99.90
10083;DHT22;5080;48.528;8.078;2024-03-23T10:35:15;8.70;99.90
10083;DHT22;5080;48.528;8.078;2024-03-23T10:37:44;8.90;99.90
10083;DHT22;5080;48.528;8.078;2024-03-23T10:40:12;9.00;99.90
10083;DHT22;5080;48.528;8.078;2024-03-23T10:42:39;9.10;99.90
10083;DHT22;5080;48.528;8.078;2024-03-23T10:45:06;9.00;99.90
10083;DHT22;5080;48.528;8.078;2024-03-23T10:47:35;9.00;99.90
10083;DHT22;5080;48.528;8.078;2024-03-23T10:50:01;9.00;99.90
10083;DHT22;5080;48.528;8.078;2024-03-23T10:52:28;9.00;99.90
10083;DHT22;5080;48.528;8.078;2024-03-23T10:54:55;9.20;99.90
10083;DHT22;5080;48.528;8.078;2024-03-23T10:57:29;9.40;99.90
10083;DHT22;5080;48.528;8.078;2024-03-23T10:59:56;9.60;99.90
10083;DHT22;5080;48.528;8.078;2024-03-23T11:02:26;9.80;99.90
10083;DHT22;5080;48.528;8.078;2024-03-23T11:04:52;10.10;99.90
10083;DHT22;5080;48.528;8.078;2024-03-23T11:07:34;10.10;99.90
10083;DHT22;5080;48.528;8.078;2024-03-23T11:10:00;10.10;99.90
10083;DHT22;5080;48.528;8.078;2024-03-23T11:12:30;10.10;99.90
10083;DHT22;5080;48.528;8.078;2024-03-23T11:15:00;10.00;99.90
10083;DHT22;5080;48.528;8.078;2024-03-23T11:17:27;10.00;99.90
10083;DHT22;5080;48.528;8.078;2024-03-23T11:19:54;10.10;99.90
10083;DHT22;5080;48.528;8.078;2024-03-23T11:22:42;10.10;99.90
10083;DHT22;5080;48.528;8.078;2024-03-23T11:25:19;10.20;99.90
10083;DHT22;5080;48.528;8.078;2024-03-23T11:27:50;10.40;99.90
10083;DHT22;5080;48.528;8.078;2024-03-23T11:30:18;10.40;99.90
10083;DHT22;5080;48.528;8.078;2024-03-23T11:32:46;10.50;99.90
10083;DHT22;5080;48.528;8.078;2024-03-23T11:35:29;10.70;99.90
10083;DHT22;5080;48.528;8.078;2024-03-23T11:38:02;10.70;99.90
10083;DHT22;5080;48.528;8.078;2024-03-23T11:40:28;10.80;99.90
10083;DHT22;5080;48.528;8.078;2024-03-23T11:42:58;10.70;99.90
10083;DHT22;5080;48.528;8.078;2024-03-23T11:45:24;10.80;99.90
10083;DHT22;5080;48.528;8.078;2024-03-23T11:48:05;10.80;99.90
10083;DHT22;5080;48.528;8.078;2024-03-23T11:50:32;10.80;99.90
10083;DHT22;5080;48.528;8.078;2024-03-23T11:53:12;11.10;99.90
10083;DHT22;5080;48.528;8.078;2024-03-23T11:55:48;11.40;99.90
10083;DHT22;5080;48.528;8.078;2024-03-23T11:58:18;11.90;99.90
10083;DHT22;5080;48.528;8.078;2024-03-23T12:00:50;12.30;99.90
10083;DHT22;5080;48.528;8.078;2024-03-23T12:03:18;12.60;99.90
10083;DHT22;5080;48.528;8.078;2024-03-23T12:05:48;12.60;99.90
10083;DHT22;5080;48.528;8.078;2024-03-23T12:08:20;12.70;99.90
10083;DHT22;5080;48.528;8.078;2024-03-23T12:10:50;12.90;99.90
10083;DHT22;5080;48.528;8.078;2024-03-23T12:13:19;12.90;99.90
10083;DHT22;5080;48.528;8.078;2024-03-23T12:15:46;13.10;99.90
10083;DHT22;5080;48.528;8.078;2024-03-23T12:18:13;13.30;99.90
10083;DHT22;5080;48.528;8.078;2024-03-23T12:20:39;13.10;99.90
10083;DHT22;5080;48.528;8.078;2024-03-23T12:23:10;12.90;99.90
10083;DHT22;5080;48.528;8.078;2024-03-23T12:25:37;12.90;99.90
10083;DHT22;5080;48.528;8.078;2024-03-23T12:28:04;13.10;99.90
10083;DHT22;5080;48.528;8.078;2024-03-23T12:30:33;13.30;99.90
10083;DHT22;5080;48.528;8.078;2024-03-23T12:33:01;13.40;99.90
10083;DHT22;5080;48.528;8.078;2024-03-23T12:35:28;13.40;99.90
10083;DHT22;5080;48.528;8.078;2024-03-23T12:37:54;13.70;99.90
10083;DHT22;5080;48.528;8.078;2024-03-23T12:40:21;13.50;99.90
10083;DHT22;5080;48.528;8.078;2024-03-23T12:42:47;13.60;99.90
10083;DHT22;5080;48.528;8.078;2024-03-23T12:45:14;13.80;99.90
10083;DHT22;5080;48.528;8.078;2024-03-23T12:47:41;14.00;99.90
10083;DHT22;5080;48.528;8.078;2024-03-23T12:50:09;14.20;99.90
10083;DHT22;5080;48.528;8.078;2024-03-23T12:52:35;14.20;99.90
10083;DHT22;5080;48.528;8.078;2024-03-23T12:55:02;14.30;99.90
10083;DHT22;5080;48.528;8.078;2024-03-23T12:57:28;14.10;99.90
10083;DHT22;5080;48.528;8.078;2024-03-23T12:59:55;13.80;99.90
10083;DHT22;5080;48.528;8.078;2024-03-23T13:02:22;13.60;99.90
10083;DHT22;5080;48.528;8.078;2024-03-23T13:04:51;13.00;99.90
10083;DHT22;5080;48.528;8.078;2024-03-23T13:07:17;12.60;99.90
10083;DHT22;5080;48.528;8.078;2024-03-23T13:09:45;12.40;99.90
10083;DHT22;5080;48.528;8.078;2024-03-23T13:12:11;12.50;99.90
10083;DHT22;5080;48.528;8.078;2024-03-23T13:14:38;12.60;99.90
10083;DHT22;5080;48.528;8.078;2024-03-23T13:17:04;12.80;99.90
10083;DHT22;5080;48.528;8.078;2024-03-23T13:19:31;13.00;99.90
10083;DHT22;5080;48.528;8.078;2024-03-23T13:21:59;13.20;99.90
10083;DHT22;5080;48.528;8.078;2024-03-23T13:24:27;13.00;99.90
10083;DHT22;5080;48.528;8.078;2024-03-23T13:26:54;12.80;99.90
10083;DHT22;5080;48.528;8.078;2024-03-23T13:29:21;12.40;99.90
10083;DHT22;5080;48.528;8.078;2024-03-23T13:31:48;12.20;99.90
10083;DHT22;5080;48.528;8.078;2024-03-23T13:34:15;12.20;99.90
10083;DHT22;5080;48.528;8.078;2024-03-23T13:36:42;12.20;99.90
10083;DHT22;5080;48.528;8.078;2024-03-23T13:39:10;12.10;99.90
10083;DHT22;5080;48.528;8.078;2024-03-23T13:41:38;11.90;99.90
10083;DHT22;5080;48.528;8.078;2024-03-23T13:44:05;11.70;99.90
10083;DHT22;5080;48.528;8.078;2024-03-23T13:46:31;11.60;99.90
10083;DHT22;5080;48.528;8.078;2024-03-23T13:48:58;11.50;99.90
10083;DHT22;5080;48.528;8.078;2024-03-23T13:51:25;11.40;99.90
10083;DHT22;5080;48.528;8.078;2024-03-23T13:53:53;11.30;99.90
10083;DHT22;5080;48.528;8.078;2024-03-23T13:56:20;11.40;99.90
10083;DHT22;5080;48.528;8.078;2024-03-23T13:58:47;11.60;99.90
10083;DHT22;5080;48.528;8.078;2024-03-23T14:01:14;12.00;99.90
10083;DHT22;5080;48.528;8.078;2024-03-23T14:03:41;12.00;99.90
10083;DHT22;5080;48.528;8.078;2024-03-23T14:06:07;11.70;99.90
10083;DHT22;5080;48.528;8.078;2024-03-23T14:08:34;11.50;99.90
10083;DHT22;5080;48.528;8.078;2024-03-23T14:11:02;11.50;99.90
10083;DHT22;5080;48.528;8.078;2024-03-23T14:13:31;11.50;99.90
10083;DHT22;5080;48.528;8.078;2024-03-23T14:15:57;11.40;99.90
10083;DHT22;5080;48.528;8.078;2024-03-23T14:18:24;11.40;99.90
10083;DHT22;5080;48.528;8.078;2024-03-23T14:20:49;11.50;99.90
10083;DHT22;5080;48.528;8.078;2024-03-23T14:23:18;11.60;99.90
10083;DHT22;5080;48.528;8.078;2024-03-23T14:25:44;11.50;99.90
10083;DHT22;5080;48.528;8.078;2024-03-23T14:28:11;11.50;99.90
10083;DHT22;5080;48.528;8.078;2024-03-23T14:30:41;11.40;99.90
10083;DHT22;5080;48.528;8.078;2024-03-23T14:33:08;11.30;99.90
10083;DHT22;5080;48.528;8.078;2024-03-23T14:35:34;11.20;99.90
10083;DHT22;5080;48.528;8.078;2024-03-23T14:38:01;11.30;99.90
10083;DHT22;5080;48.528;8.078;2024-03-23T14:40:27;11.40;99.90
10083;DHT22;5080;48.528;8.078;2024-03-23T14:42:54;11.50;99.90
10083;DHT22;5080;48.528;8.078;2024-03-23T14:45:20;11.60;99.90
10083;DHT22;5080;48.528;8.078;2024-03-23T14:47:49;11.80;99.90
10083;DHT22;5080;48.528;8.078;2024-03-23T14:50:14;11.90;99.90
10083;DHT22;5080;48.528;8.078;2024-03-23T14:52:43;12.30;99.90
10083;DHT22;5080;48.528;8.078;2024-03-23T14:55:10;12.70;99.90
10083;DHT22;5080;48.528;8.078;2024-03-23T14:57:36;12.60;99.90
10083;DHT22;5080;48.528;8.078;2024-03-23T15:00:06;12.30;99.90
10083;DHT22;5080;48.528;8.078;2024-03-23T15:02:33;12.10;99.90
10083;DHT22;5080;48.528;8.078;2024-03-23T15:05:01;11.90;99.90
10083;DHT22;5080;48.528;8.078;2024-03-23T15:07:29;11.70;99.90
10083;DHT22;5080;48.528;8.078;2024-03-23T15:09:55;11.60;99.90
10083;DHT22;5080;48.528;8.078;2024-03-23T15:12:21;11.50;99.90
10083;DHT22;5080;48.528;8.078;2024-03-23T15:14:47;11.30;99.90
10083;DHT22;5080;48.528;8.078;2024-03-23T15:17:14;11.30;99.90
10083;DHT22;5080;48.528;8.078;2024-03-23T15:19:40;11.20;99.90
10083;DHT22;5080;48.528;8.078;2024-03-23T15:22:09;11.20;99.90
10083;DHT22;5080;48.528;8.078;2024-03-23T15:24:35;11.10;99.90
10083;DHT22;5080;48.528;8.078;2024-03-23T15:27:03;11.20;99.90
10083;DHT22;5080;48.528;8.078;2024-03-23T15:29:29;11.20;99.90
10083;DHT22;5080;48.528;8.078;2024-03-23T15:31:56;11.30;99.90
10083;DHT22;5080;48.528;8.078;2024-03-23T15:34:22;11.20;99.90
10083;DHT22;5080;48.528;8.078;2024-03-23T15:36:49;11.20;99.90
10083;DHT22;5080;48.528;8.078;2024-03-23T15:39:17;11.10;99.90
10083;DHT22;5080;48.528;8.078;2024-03-23T15:41:44;11.10;99.90
10083;DHT22;5080;48.528;8.078;2024-03-23T15:44:10;11.10;99.90
10083;DHT22;5080;48.528;8.078;2024-03-23T15:46:37;11.10;99.90
10083;DHT22;5080;48.528;8.078;2024-03-23T15:49:03;11.10;99.90
10083;DHT22;5080;48.528;8.078;2024-03-23T15:51:29;11.10;99.90
10083;DHT22;5080;48.528;8.078;2024-03-23T15:53:58;11.30;99.90
10083;DHT22;5080;48.528;8.078;2024-03-23T15:56:26;11.50;99.90
10083;DHT22;5080;48.528;8.078;2024-03-23T15:58:52;11.60;99.90
10083;DHT22;5080;48.528;8.078;2024-03-23T16:01:19;11.70;99.90
10083;DHT22;5080;48.528;8.078;2024-03-23T16:03:45;11.70;99.90
10083;DHT22;5080;48.528;8.078;2024-03-23T16:06:11;11.50;99.90
10083;DHT22;5080;48.528;8.078;2024-03-23T16:08:37;11.40;99.90
10083;DHT22;5080;48.528;8.078;2024-03-23T16:11:05;11.50;99.90
10083;DHT22;5080;48.528;8.078;2024-03-23T16:13:33;11.40;99.90
10083;DHT22;5080;48.528;8.078;2024-03-23T16:16:02;11.30;99.90
10083;DHT22;5080;48.528;8.078;2024-03-23T16:18:29;11.20;99.90
10083;DHT22;5080;48.528;8.078;2024-03-23T16:20:57;11.10;99.90
10083;DHT22;5080;48.528;8.078;2024-03-23T16:23:23;11.00;99.90
10083;DHT22;5080;48.528;8.078;2024-03-23T16:25:51;11.00;99.90
10083;DHT22;5080;48.528;8.078;2024-03-23T16:28:33;10.90;99.90
10083;DHT22;5080;48.528;8.078;2024-03-23T16:31:02;10.90;99.90
10083;DHT22;5080;48.528;8.078;2024-03-23T16:33:29;10.70;99.90
10083;DHT22;5080;48.528;8.078;2024-03-23T16:35:57;10.60;99.90
10083;DHT22;5080;48.528;8.078;2024-03-23T16:38:24;10.30;99.90
10083;DHT22;5080;48.528;8.078;2024-03-23T16:40:57;10.00;99.90